sensor_id;sensor_type;location;lat;lon;timestamp;temperature;humidity
15713;DHT22;7957;51.608;6.916;2022-12-10T00:01:59;1.60;99.90
15713;DHT22;7957;51.608;6.916;2022-12-10T00:04:26;1.60;99.90
15713;DHT22;7957;51.608;6.916;2022-12-10T00:06:53;1.60;99.90
15713;DHT22;7957;51.608;6.916;2022-12-10T00:09:24;1.60;99.90
15713;DHT22;7957;51.608;6.916;2022-12-10T00:11:51;1.60;99.90
15713;DHT22;7957;51.608;6.916;2022-12-10T00:14:18;1.60;99.90
15713;DHT22;7957;51.608;6.916;2022-12-10T00:16:45;1.70;99.90
15713;DHT22;7957;51.608;6.916;2022-12-10T00:19:12;1.60;99.90
15713;DHT22;7957;51.608;6.916;2022-12-10T00:21:39;1.60;99.90
15713;DHT22;7957;51.608;6.916;2022-12-10T00:24:07;1.60;99.90
15713;DHT22;7957;51.608;6.916;2022-12-10T00:26:36;1.60;99.90
15713;DHT22;7957;51.608;6.916;2022-12-10T00:29:06;1.70;99.90
15713;DHT22;7957;51.608;6.916;2022-12-10T00:31:35;1.70;99.90
15713;DHT22;7957;51.608;6.916;2022-12-10T00:34:06;1.70;99.90
15713;DHT22;7957;51.608;6.916;2022-12-10T00:36:35;1.70;99.90
15713;DHT22;7957;51.608;6.916;2022-12-10T00:39:04;1.70;99.90
15713;DHT22;7957;51.608;6.916;2022-12-10T00:41:31;1.70;99.90
15713;DHT22;7957;51.608;6.916;2022-12-10T00:43:59;1.70;99.90
15713;DHT22;7957;51.608;6.916;2022-12-10T00:46:27;1.80;99.90
15713;DHT22;7957;51.608;6.916;2022-12-10T00:48:54;1.70;99.90
15713;DHT22;7957;51.608;6.916;2022-12-10T00:51:22;1.70;99.90
15713;DHT22;7957;51.608;6.916;2022-12-10T00:53:54;1.70;99.90
15713;DHT22;7957;51.608;6.916;2022-12-10T00:56:23;1.70;99.90
15713;DHT22;7957;51.608;6.916;2022-12-10T00:58:51;1.70;99.90
15713;DHT22;7957;51.608;6.916;2022-12-10T01:01:22;1.70;99.90
15713;DHT22;7957;51.608;6.916;2022-12-10T01:03:51;1.70;99.90
15713;DHT22;7957;51.608;6.916;2022-12-10T01:06:21;1.70;99.90
15713;DHT22;7957;51.608;6.916;2022-12-10T01:08:50;1.70;99.90
15713;DHT22;7957;51.608;6.916;2022-12-10T01:11:19;1.70;99.90
15713;DHT22;7957;51.608;6.916;2022-12-10T01:13:47;1.70;99.90
15713;DHT22;7957;51.608;6.916;2022-12-10T01:16:17;1.70;99.90
15713;DHT22;7957;51.608;6.916;2022-12-10T01:18:46;1.70;99.90
15713;DHT22;7957;51.608;6.916;2022-12-10T01:21:15;1.60;99.90
15713;DHT22;7957;51.608;6.916;2022-12-10T01:23:44;1.60;99.90
15713;DHT22;7957;51.608;6.916;2022-12-10T01:26:13;1.50;99.90
15713;DHT22;7957;51.608;6.916;2022-12-10T01:28:41;1.50;99.90
15713;DHT22;7957;51.608;6.916;2022-12-10T01:31:10;1.50;99.90
15713;DHT22;7957;51.608;6.916;2022-12-10T01:33:38;1.50;99.90
15713;DHT22;7957;51.608;6.916;2022-12-10T01:36:09;1.50;99.90
15713;DHT22;7957;51.608;6.916;2022-12-10T01:38:37;1.40;99.90
15713;DHT22;7957;51.608;6.916;2022-12-10T01:41:05;1.40;99.90
15713;DHT22;7957;51.608;6.916;2022-12-10T01:43:48;1.30;99.90
15713;DHT22;7957;51.608;6.916;2022-12-10T01:46:15;1.30;99.90
15713;DHT22;7957;51.608;6.916;2022-12-10T01:48:43;1.30;99.90
15713;DHT22;7957;51.608;6.916;2022-12-10T01:51:12;1.30;99.90
15713;DHT22;7957;51.608;6.916;2022-12-10T01:53:40;1.20;99.90
15713;DHT22;7957;51.608;6.916;2022-12-10T01:56:09;1.20;99.90
15713;DHT22;7957;51.608;6.916;2022-12-10T01:58:36;1.20;99.90
15713;DHT22;7957;51.608;6.916;2022-12-10T02:01:07;1.10;99.90
15713;DHT22;7957;51.608;6.916;2022-12-10T02:03:51;1.10;99.90
15713;DHT22;7957;51.608;6.916;2022-12-10T02:06:28;1.10;99.90
15713;DHT22;7957;51.608;6.916;2022-12-10T02:09:04;1.10;99.90
15713;DHT22;7957;51.608;6.916;2022-12-10T02:11:37;1.00;99.90
15713;DHT22;7957;51.608;6.916;2022-12-10T02:14:11;1.00;99.90
15713;DHT22;7957;51.608;6.916;2022-12-10T02:16:43;1.00;99.90
15713;DHT22;7957;51.608;6.916;2022-12-10T02:19:18;0.90;99.90
15713;DHT22;7957;51.608;6.916;2022-12-10T02:21:51;0.90;99.90
15713;DHT22;7957;51.608;6.916;2022-12-10T02:24:23;0.90;99.90
15713;DHT22;7957;51.608;6.916;2022-12-10T02:26:58;0.80;99.90
15713;DHT22;7957;51.608;6.916;2022-12-10T02:29:29;0.80;99.90
15713;DHT22;7957;51.608;6.916;2022-12-10T02:32:00;0.80;99.90
15713;DHT22;7957;51.608;6.916;2022-12-10T02:34:31;0.80;99.90
15713;DHT22;7957;51.608;6.916;2022-12-10T02:37:04;0.80;99.90
15713;DHT22;7957;51.608;6.916;2022-12-10T02:39:35;0.90;99.90
15713;DHT22;7957;51.608;6.916;2022-12-10T02:42:05;0.80;99.90
15713;DHT22;7957;51.608;6.916;2022-12-10T02:44:38;0.80;99.90
15713;DHT22;7957;51.608;6.916;2022-12-10T02:47:08;0.80;99.90
15713;DHT22;7957;51.608;6.916;2022-12-10T02:49:36;0.80;99.90
15713;DHT22;7957;51.608;6.916;2022-12-10T02:52:08;0.70;99.90
15713;DHT22;7957;51.608;6.916;2022-12-10T02:54:41;0.80;99.90
15713;DHT22;7957;51.608;6.916;2022-12-10T02:57:23;0.80;99.90
15713;DHT22;7957;51.608;6.916;2022-12-10T03:00:05;0.80;99.90
15713;DHT22;7957;51.608;6.916;2022-12-10T03:02:43;0.80;99.90
15713;DHT22;7957;51.608;6.916;2022-12-10T03:05:17;0.80;99.90
15713;DHT22;7957;51.608;6.916;2022-12-10T03:07:49;0.80;99.90
15713;DHT22;7957;51.608;6.916;2022-12-10T03:10:24;0.90;99.90
15713;DHT22;7957;51.608;6.916;2022-12-10T03:12:56;0.80;99.90
15713;DHT22;7957;51.608;6.916;2022-12-10T03:15:28;0.80;99.90
15713;DHT22;7957;51.608;6.916;2022-12-10T03:17:59;0.80;99.90
15713;DHT22;7957;51.608;6.916;2022-12-10T03:20:28;0.80;99.90
15713;DHT22;7957;51.608;6.916;2022-12-10T03:22:56;0.70;99.90
15713;DHT22;7957;51.608;6.916;2022-12-10T03:25:25;0.80;99.90
15713;DHT22;7957;51.608;6.916;2022-12-10T03:27:56;0.80;99.90
15713;DHT22;7957;51.608;6.916;2022-12-10T03:30:30;0.70;99.90
15713;DHT22;7957;51.608;6.916;2022-12-10T03:32:59;0.70;99.90
15713;DHT22;7957;51.608;6.916;2022-12-10T03:35:27;0.70;99.90
15713;DHT22;7957;51.608;6.916;2022-12-10T03:37:54;0.70;99.90
15713;DHT22;7957;51.608;6.916;2022-12-10T03:40:23;0.70;99.90
15713;DHT22;7957;51.608;6.916;2022-12-10T03:42:51;0.60;99.90
15713;DHT22;7957;51.608;6.916;2022-12-10T03:45:18;0.70;99.90
15713;DHT22;7957;51.608;6.916;2022-12-10T03:47:47;0.60;99.90
15713;DHT22;7957;51.608;6.916;2022-12-10T03:50:21;0.60;99.90
15713;DHT22;7957;51.608;6.916;2022-12-10T03:52:48;0.60;99.90
15713;DHT22;7957;51.608;6.916;2022-12-10T03:55:15;0.60;99.90
15713;DHT22;7957;51.608;6.916;2022-12-10T03:57:42;0.60;99.90
15713;DHT22;7957;51.608;6.916;2022-12-10T04:00:10;0.50;99.90
15713;DHT22;7957;51.608;6.916;2022-12-10T04:02:43;0.60;99.90
15713;DHT22;7957;51.608;6.916;2022-12-10T04:05:11;0.50;99.90
15713;DHT22;7957;51.608;6.916;2022-12-10T04:07:38;0.50;99.90
15713;DHT22;7957;51.608;6.916;2022-12-10T04:10:06;0.40;99.90
15713;DHT22;7957;51.608;6.916;2022-12-10T04:12:34;0.40;99.90
15713;DHT22;7957;51.608;6.916;2022-12-10T04:15:01;0.40;99.90
15713;DHT22;7957;51.608;6.916;2022-12-10T04:17:45;0.40;99.90
15713;DHT22;7957;51.608;6.916;2022-12-10T04:20:13;0.40;99.90
15713;DHT22;7957;51.608;6.916;2022-12-10T04:22:54;0.40;99.90
15713;DHT22;7957;51.608;6.916;2022-12-10T04:25:38;0.50;99.90
15713;DHT22;7957;51.608;6.916;2022-12-10T04:28:22;0.40;99.90
15713;DHT22;7957;51.608;6.916;2022-12-10T04:30:49;0.40;99.90
15713;DHT22;7957;51.608;6.916;2022-12-10T04:33:16;0.40;99.90
15713;DHT22;7957;51.608;6.916;2022-12-10T04:35:45;0.40;99.90
15713;DHT22;7957;51.608;6.916;2022-12-10T04:38:12;0.30;99.90
15713;DHT22;7957;51.608;6.916;2022-12-10T04:40:39;0.30;99.90
15713;DHT22;7957;51.608;6.916;2022-12-10T04:43:06;0.30;99.90
15713;DHT22;7957;51.608;6.916;2022-12-10T04:45:34;0.30;99.90
15713;DHT22;7957;51.608;6.916;2022-12-10T04:48:01;0.30;99.90
15713;DHT22;7957;51.608;6.916;2022-12-10T04:50:28;0.20;99.90
15713;DHT22;7957;51.608;6.916;2022-12-10T04:52:58;0.20;99.90
15713;DHT22;7957;51.608;6.916;2022-12-10T04:55:25;0.20;99.90
15713;DHT22;7957;51.608;6.916;2022-12-10T04:57:51;0.20;99.90
15713;DHT22;7957;51.608;6.916;2022-12-10T05:00:19;0.20;99.90
15713;DHT22;7957;51.608;6.916;2022-12-10T05:02:48;0.20;99.90
15713;DHT22;7957;51.608;6.916;2022-12-10T05:05:16;0.20;99.90
15713;DHT22;7957;51.608;6.916;2022-12-10T05:07:43;0.10;99.90
15713;DHT22;7957;51.608;6.916;2022-12-10T05:10:12;0.10;99.90
15713;DHT22;7957;51.608;6.916;2022-12-10T05:12:39;0.10;99.90
15713;DHT22;7957;51.608;6.916;2022-12-10T05:15:07;0.00;99.90
15713;DHT22;7957;51.608;6.916;2022-12-10T05:17:34;0.10;99.90
15713;DHT22;7957;51.608;6.916;2022-12-10T05:20:01;0.10;99.90
15713;DHT22;7957;51.608;6.916;2022-12-10T05:22:28;0.10;99.90
15713;DHT22;7957;51.608;6.916;2022-12-10T05:25:16;0.10;99.90
15713;DHT22;7957;51.608;6.916;2022-12-10T05:27:43;0.10;99.90
15713;DHT22;7957;51.608;6.916;2022-12-10T05:30:11;0.10;99.90
15713;DHT22;7957;51.608;6.916;2022-12-10T05:32:38;0.10;99.90
15713;DHT22;7957;51.608;6.916;2022-12-10T05:35:05;0.00;99.90
15713;DHT22;7957;51.608;6.916;2022-12-10T05:37:33;0.10;99.90
15713;DHT22;7957;51.608;6.916;2022-12-10T05:40:00;0.00;99.90
15713;DHT22;7957;51.608;6.916;2022-12-10T05:42:28;0.10;99.90
15713;DHT22;7957;51.608;6.916;2022-12-10T05:44:55;0.10;99.90
15713;DHT22;7957;51.608;6.916;2022-12-10T05:47:22;0.10;99.90
15713;DHT22;7957;51.608;6.916;2022-12-10T05:49:49;0.00;99.90
15713;DHT22;7957;51.608;6.916;2022-12-10T05:52:16;0.10;99.90
15713;DHT22;7957;51.608;6.916;2022-12-10T05:54:43;0.10;99.90
15713;DHT22;7957;51.608;6.916;2022-12-10T05:57:09;0.10;99.90
15713;DHT22;7957;51.608;6.916;2022-12-10T05:59:44;0.10;99.90
15713;DHT22;7957;51.608;6.916;2022-12-10T06:02:11;0.10;99.90
15713;DHT22;7957;51.608;6.916;2022-12-10T06:04:48;0.10;99.90
15713;DHT22;7957;51.608;6.916;2022-12-10T06:07:15;0.20;99.90
15713;DHT22;7957;51.608;6.916;2022-12-10T06:09:45;0.20;99.90
15713;DHT22;7957;51.608;6.916;2022-12-10T06:12:23;0.20;99.90
15713;DHT22;7957;51.608;6.916;2022-12-10T06:14:52;0.20;99.90
15713;DHT22;7957;51.608;6.916;2022-12-10T06:17:19;0.20;99.90
15713;DHT22;7957;51.608;6.916;2022-12-10T06:19:46;0.20;99.90
15713;DHT22;7957;51.608;6.916;2022-12-10T06:22:13;0.30;99.90
15713;DHT22;7957;51.608;6.916;2022-12-10T06:24:40;0.30;99.90
15713;DHT22;7957;51.608;6.916;2022-12-10T06:27:06;0.30;99.90
15713;DHT22;7957;51.608;6.916;2022-12-10T06:29:33;0.30;99.90
15713;DHT22;7957;51.608;6.916;2022-12-10T06:32:02;0.30;99.90
15713;DHT22;7957;51.608;6.916;2022-12-10T06:34:29;0.40;99.90
15713;DHT22;7957;51.608;6.916;2022-12-10T06:40:26;0.40;99.90
15713;DHT22;7957;51.608;6.916;2022-12-10T06:42:53;0.40;99.90
15713;DHT22;7957;51.608;6.916;2022-12-10T06:45:23;0.40;99.90
15713;DHT22;7957;51.608;6.916;2022-12-10T06:47:52;0.40;99.90
15713;DHT22;7957;51.608;6.916;2022-12-10T06:50:19;0.50;99.90
15713;DHT22;7957;51.608;6.916;2022-12-10T06:52:46;0.50;99.90
15713;DHT22;7957;51.608;6.916;2022-12-10T06:55:13;0.50;99.90
15713;DHT22;7957;51.608;6.916;2022-12-10T06:57:40;0.50;99.90
15713;DHT22;7957;51.608;6.916;2022-12-10T07:00:08;0.50;99.90
15713;DHT22;7957;51.608;6.916;2022-12-10T07:02:36;0.50;99.90
15713;DHT22;7957;51.608;6.916;2022-12-10T07:05:06;0.60;99.90
15713;DHT22;7957;51.608;6.916;2022-12-10T07:07:34;0.60;99.90
15713;DHT22;7957;51.608;6.916;2022-12-10T07:10:02;0.60;99.90
15713;DHT22;7957;51.608;6.916;2022-12-10T07:12:29;0.60;99.90
15713;DHT22;7957;51.608;6.916;2022-12-10T07:14:56;0.60;99.90
15713;DHT22;7957;51.608;6.916;2022-12-10T07:17:25;0.60;99.90
15713;DHT22;7957;51.608;6.916;2022-12-10T07:19:57;0.60;99.90
15713;DHT22;7957;51.608;6.916;2022-12-10T07:22:28;0.60;99.90
15713;DHT22;7957;51.608;6.916;2022-12-10T07:24:55;0.60;99.90
15713;DHT22;7957;51.608;6.916;2022-12-10T07:27:22;0.70;99.90
15713;DHT22;7957;51.608;6.916;2022-12-10T07:29:49;0.70;99.90
15713;DHT22;7957;51.608;6.916;2022-12-10T07:35:12;0.70;99.90
15713;DHT22;7957;51.608;6.916;2022-12-10T07:37:42;0.70;99.90
15713;DHT22;7957;51.608;6.916;2022-12-10T07:40:15;0.70;99.90
15713;DHT22;7957;51.608;6.916;2022-12-10T07:42:42;0.80;99.90
15713;DHT22;7957;51.608;6.916;2022-12-10T07:45:12;0.70;99.90
15713;DHT22;7957;51.608;6.916;2022-12-10T07:47:39;0.80;99.90
15713;DHT22;7957;51.608;6.916;2022-12-10T07:50:17;0.80;99.90
15713;DHT22;7957;51.608;6.916;2022-12-10T07:52:45;0.80;99.90
15713;DHT22;7957;51.608;6.916;2022-12-10T07:55:28;0.80;99.90
15713;DHT22;7957;51.608;6.916;2022-12-10T08:01:16;0.80;99.90
15713;DHT22;7957;51.608;6.916;2022-12-10T08:03:44;0.80;99.90
15713;DHT22;7957;51.608;6.916;2022-12-10T08:06:13;0.80;99.90
15713;DHT22;7957;51.608;6.916;2022-12-10T08:08:43;0.80;99.90
15713;DHT22;7957;51.608;6.916;2022-12-10T08:11:12;0.80;99.90
15713;DHT22;7957;51.608;6.916;2022-12-10T08:20:35;0.90;99.90
15713;DHT22;7957;51.608;6.916;2022-12-10T08:23:02;0.90;99.90
15713;DHT22;7957;51.608;6.916;2022-12-10T08:25:31;0.90;99.90
15713;DHT22;7957;51.608;6.916;2022-12-10T08:27:58;0.90;99.90
15713;DHT22;7957;51.608;6.916;2022-12-10T08:30:28;0.90;99.90
15713;DHT22;7957;51.608;6.916;2022-12-10T08:32:55;1.00;99.90
15713;DHT22;7957;51.608;6.916;2022-12-10T08:35:22;1.00;99.90
15713;DHT22;7957;51.608;6.916;2022-12-10T08:37:49;1.00;99.90
15713;DHT22;7957;51.608;6.916;2022-12-10T08:40:21;1.00;99.90
15713;DHT22;7957;51.608;6.916;2022-12-10T08:43:05;1.00;99.90
15713;DHT22;7957;51.608;6.916;2022-12-10T08:45:32;1.00;99.90
15713;DHT22;7957;51.608;6.916;2022-12-10T08:48:00;1.00;99.90
15713;DHT22;7957;51.608;6.916;2022-12-10T08:50:27;1.00;99.90
15713;DHT22;7957;51.608;6.916;2022-12-10T08:52:55;1.00;99.90
15713;DHT22;7957;51.608;6.916;2022-12-10T08:55:24;1.00;99.90
15713;DHT22;7957;51.608;6.916;2022-12-10T08:57:51;1.10;99.90
15713;DHT22;7957;51.608;6.916;2022-12-10T09:00:20;1.10;99.90
15713;DHT22;7957;51.608;6.916;2022-12-10T09:02:47;1.10;99.90
15713;DHT22;7957;51.608;6.916;2022-12-10T09:05:15;1.10;99.90
15713;DHT22;7957;51.608;6.916;2022-12-10T09:07:53;1.10;99.90
15713;DHT22;7957;51.608;6.916;2022-12-10T09:10:20;1.10;99.90
15713;DHT22;7957;51.608;6.916;2022-12-10T09:12:47;1.10;99.90
15713;DHT22;7957;51.608;6.916;2022-12-10T09:15:14;1.10;99.90
15713;DHT22;7957;51.608;6.916;2022-12-10T09:17:43;1.10;99.90
15713;DHT22;7957;51.608;6.916;2022-12-10T09:20:10;1.20;99.90
15713;DHT22;7957;51.608;6.916;2022-12-10T09:22:38;1.10;99.90
15713;DHT22;7957;51.608;6.916;2022-12-10T09:25:07;1.10;99.90
15713;DHT22;7957;51.608;6.916;2022-12-10T09:27:35;1.10;99.90
15713;DHT22;7957;51.608;6.916;2022-12-10T09:30:03;1.20;99.90
15713;DHT22;7957;51.608;6.916;2022-12-10T09:32:30;1.20;99.90
15713;DHT22;7957;51.608;6.916;2022-12-10T09:34:58;1.10;99.90
15713;DHT22;7957;51.608;6.916;2022-12-10T09:37:25;1.20;99.90
15713;DHT22;7957;51.608;6.916;2022-12-10T09:39:52;1.20;99.90
15713;DHT22;7957;51.608;6.916;2022-12-10T09:42:31;1.20;99.90
15713;DHT22;7957;51.608;6.916;2022-12-10T09:45:02;1.20;99.90
15713;DHT22;7957;51.608;6.916;2022-12-10T09:47:36;1.20;99.90
15713;DHT22;7957;51.608;6.916;2022-12-10T09:50:12;1.20;99.90
15713;DHT22;7957;51.608;6.916;2022-12-10T09:52:45;1.20;99.90
15713;DHT22;7957;51.608;6.916;2022-12-10T09:55:15;1.20;99.90
15713;DHT22;7957;51.608;6.916;2022-12-10T09:57:45;1.30;99.90
15713;DHT22;7957;51.608;6.916;2022-12-10T10:00:20;1.30;99.90
15713;DHT22;7957;51.608;6.916;2022-12-10T10:02:49;1.30;99.90
15713;DHT22;7957;51.608;6.916;2022-12-10T10:05:21;1.30;99.90
15713;DHT22;7957;51.608;6.916;2022-12-10T10:07:52;1.30;99.90
15713;DHT22;7957;51.608;6.916;2022-12-10T10:10:25;1.30;99.90
15713;DHT22;7957;51.608;6.916;2022-12-10T10:12:55;1.30;99.90
15713;DHT22;7957;51.608;6.916;2022-12-10T10:15:26;1.30;99.90
15713;DHT22;7957;51.608;6.916;2022-12-10T10:18:02;1.30;99.90
15713;DHT22;7957;51.608;6.916;2022-12-10T10:20:32;1.30;99.90
15713;DHT22;7957;51.608;6.916;2022-12-10T10:22:59;1.30;99.90
15713;DHT22;7957;51.608;6.916;2022-12-10T10:25:27;1.30;99.90
15713;DHT22;7957;51.608;6.916;2022-12-10T10:27:55;1.30;99.90
15713;DHT22;7957;51.608;6.916;2022-12-10T10:30:22;1.30;99.90
15713;DHT22;7957;51.608;6.916;2022-12-10T10:32:51;1.30;99.90
15713;DHT22;7957;51.608;6.916;2022-12-10T10:35:27;1.40;99.90
15713;DHT22;7957;51.608;6.916;2022-12-10T10:38:01;1.40;99.90
15713;DHT22;7957;51.608;6.916;2022-12-10T10:40:31;1.40;99.90
15713;DHT22;7957;51.608;6.916;2022-12-10T10:43:00;1.40;99.90
15713;DHT22;7957;51.608;6.916;2022-12-10T10:45:39;1.40;99.90
15713;DHT22;7957;51.608;6.916;2022-12-10T10:48:10;1.40;99.90
15713;DHT22;7957;51.608;6.916;2022-12-10T10:50:41;1.40;99.90
15713;DHT22;7957;51.608;6.916;2022-12-10T10:53:28;1.40;99.90
15713;DHT22;7957;51.608;6.916;2022-12-10T10:55:58;1.50;99.90
15713;DHT22;7957;51.608;6.916;2022-12-10T10:58:26;1.40;99.90
15713;DHT22;7957;51.608;6.916;2022-12-10T11:00:58;1.50;99.90
15713;DHT22;7957;51.608;6.916;2022-12-10T11:03:30;1.50;99.90
15713;DHT22;7957;51.608;6.916;2022-12-10T11:05:59;1.50;99.90
15713;DHT22;7957;51.608;6.916;2022-12-10T11:08:30;1.50;99.90
15713;DHT22;7957;51.608;6.916;2022-12-10T11:11:02;1.50;99.90
15713;DHT22;7957;51.608;6.916;2022-12-10T11:13:32;1.50;99.90
15713;DHT22;7957;51.608;6.916;2022-12-10T11:16:01;1.50;99.90
15713;DHT22;7957;51.608;6.916;2022-12-10T11:18:34;1.50;99.90
15713;DHT22;7957;51.608;6.916;2022-12-10T11:21:05;1.50;99.90
15713;DHT22;7957;51.608;6.916;2022-12-10T11:23:38;1.50;99.90
15713;DHT22;7957;51.608;6.916;2022-12-10T11:26:15;1.50;99.90
15713;DHT22;7957;51.608;6.916;2022-12-10T11:28:56;1.50;99.90
15713;DHT22;7957;51.608;6.916;2022-12-10T11:31:37;1.60;99.90
15713;DHT22;7957;51.608;6.916;2022-12-10T11:34:15;1.60;99.90
15713;DHT22;7957;51.608;6.916;2022-12-10T11:36:56;1.60;99.90
15713;DHT22;7957;51.608;6.916;2022-12-10T11:39:49;1.60;99.90
15713;DHT22;7957;51.608;6.916;2022-12-10T11:42:24;1.60;99.90
15713;DHT22;7957;51.608;6.916;2022-12-10T11:45:00;1.60;99.90
15713;DHT22;7957;51.608;6.916;2022-12-10T11:47:41;1.60;99.90
15713;DHT22;7957;51.608;6.916;2022-12-10T11:50:22;1.70;99.90
15713;DHT22;7957;51.608;6.916;2022-12-10T11:53:01;1.70;99.90
15713;DHT22;7957;51.608;6.916;2022-12-10T11:55:37;1.70;99.90
15713;DHT22;7957;51.608;6.916;2022-12-10T11:58:20;1.40;99.90
15713;DHT22;7957;51.608;6.916;2022-12-10T12:00:57;1.20;99.90
15713;DHT22;7957;51.608;6.916;2022-12-10T12:03:44;1.20;99.90
15713;DHT22;7957;51.608;6.916;2022-12-10T12:06:32;1.20;99.90
15713;DHT22;7957;51.608;6.916;2022-12-10T12:09:05;1.30;99.90
15713;DHT22;7957;51.608;6.916;2022-12-10T12:12:09;1.40;99.90
15713;DHT22;7957;51.608;6.916;2022-12-10T12:14:43;1.40;99.90
15713;DHT22;7957;51.608;6.916;2022-12-10T12:17:15;1.50;99.90
15713;DHT22;7957;51.608;6.916;2022-12-10T12:19:45;1.50;99.90
15713;DHT22;7957;51.608;6.916;2022-12-10T12:22:15;1.60;99.90
15713;DHT22;7957;51.608;6.916;2022-12-10T12:24:46;1.60;99.90
15713;DHT22;7957;51.608;6.916;2022-12-10T12:27:23;1.60;99.90
15713;DHT22;7957;51.608;6.916;2022-12-10T12:30:00;1.60;99.90
15713;DHT22;7957;51.608;6.916;2022-12-10T12:32:32;1.60;99.90
15713;DHT22;7957;51.608;6.916;2022-12-10T12:35:06;1.60;99.90
15713;DHT22;7957;51.608;6.916;2022-12-10T12:37:40;1.60;99.90
15713;DHT22;7957;51.608;6.916;2022-12-10T12:40:13;1.60;99.90
15713;DHT22;7957;51.608;6.916;2022-12-10T12:42:46;1.70;99.90
15713;DHT22;7957;51.608;6.916;2022-12-10T12:45:19;1.70;99.90
15713;DHT22;7957;51.608;6.916;2022-12-10T12:48:01;1.70;99.90
15713;DHT22;7957;51.608;6.916;2022-12-10T12:50:37;1.70;99.90
15713;DHT22;7957;51.608;6.916;2022-12-10T12:53:08;1.70;99.90
15713;DHT22;7957;51.608;6.916;2022-12-10T12:55:41;1.70;99.90
15713;DHT22;7957;51.608;6.916;2022-12-10T12:58:30;1.70;99.90
15713;DHT22;7957;51.608;6.916;2022-12-10T13:01:06;1.80;99.90
15713;DHT22;7957;51.608;6.916;2022-12-10T13:03:38;1.80;99.90
15713;DHT22;7957;51.608;6.916;2022-12-10T13:06:29;1.80;99.90
15713;DHT22;7957;51.608;6.916;2022-12-10T13:09:25;1.80;99.90
15713;DHT22;7957;51.608;6.916;2022-12-10T13:12:24;1.80;99.90
15713;DHT22;7957;51.608;6.916;2022-12-10T13:15:17;1.80;99.90
15713;DHT22;7957;51.608;6.916;2022-12-10T13:18:02;1.80;99.90
15713;DHT22;7957;51.608;6.916;2022-12-10T13:20:32;1.80;99.90
15713;DHT22;7957;51.608;6.916;2022-12-10T13:23:01;1.80;99.90
15713;DHT22;7957;51.608;6.916;2022-12-10T13:25:54;1.80;99.90
15713;DHT22;7957;51.608;6.916;2022-12-10T13:28:29;1.70;99.90
15713;DHT22;7957;51.608;6.916;2022-12-10T13:34:23;1.80;99.90
15713;DHT22;7957;51.608;6.916;2022-12-10T13:37:29;1.80;99.90
15713;DHT22;7957;51.608;6.916;2022-12-10T13:40:15;1.80;99.90
15713;DHT22;7957;51.608;6.916;2022-12-10T13:42:57;1.80;99.90
15713;DHT22;7957;51.608;6.916;2022-12-10T13:45:42;1.80;99.90
15713;DHT22;7957;51.608;6.916;2022-12-10T13:48:34;1.80;99.90
15713;DHT22;7957;51.608;6.916;2022-12-10T13:51:15;1.80;99.90
15713;DHT22;7957;51.608;6.916;2022-12-10T13:54:41;1.80;99.90
15713;DHT22;7957;51.608;6.916;2022-12-10T13:57:25;1.80;99.90
15713;DHT22;7957;51.608;6.916;2022-12-10T14:00:03;1.80;99.90
15713;DHT22;7957;51.608;6.916;2022-12-10T14:02:45;1.70;99.90
15713;DHT22;7957;51.608;6.916;2022-12-10T14:05:27;1.70;99.90
15713;DHT22;7957;51.608;6.916;2022-12-10T14:08:01;1.80;99.90
15713;DHT22;7957;51.608;6.916;2022-12-10T14:10:32;1.80;99.90
15713;DHT22;7957;51.608;6.916;2022-12-10T14:13:06;1.80;99.90
15713;DHT22;7957;51.608;6.916;2022-12-10T14:15:35;1.80;99.90
15713;DHT22;7957;51.608;6.916;2022-12-10T14:18:08;1.80;99.90
15713;DHT22;7957;51.608;6.916;2022-12-10T14:20:44;1.80;99.90
15713;DHT22;7957;51.608;6.916;2022-12-10T14:23:35;1.70;99.90
15713;DHT22;7957;51.608;6.916;2022-12-10T14:26:09;1.80;99.90
15713;DHT22;7957;51.608;6.916;2022-12-10T14:28:45;1.70;99.90
15713;DHT22;7957;51.608;6.916;2022-12-10T14:31:16;1.80;99.90
15713;DHT22;7957;51.608;6.916;2022-12-10T14:33:48;1.80;99.90
15713;DHT22;7957;51.608;6.916;2022-12-10T14:36:36;1.80;99.90
15713;DHT22;7957;51.608;6.916;2022-12-10T14:39:04;1.80;99.90
15713;DHT22;7957;51.608;6.916;2022-12-10T14:41:38;1.70;99.90
15713;DHT22;7957;51.608;6.916;2022-12-10T14:44:06;1.70;99.90
15713;DHT22;7957;51.608;6.916;2022-12-10T14:46:33;1.70;99.90
15713;DHT22;7957;51.608;6.916;2022-12-10T14:49:00;1.70;99.90
15713;DHT22;7957;51.608;6.916;2022-12-10T14:51:33;1.70;99.90
15713;DHT22;7957;51.608;6.916;2022-12-10T14:54:00;1.70;99.90
15713;DHT22;7957;51.608;6.916;2022-12-10T14:56:30;1.70;99.90
15713;DHT22;7957;51.608;6.916;2022-12-10T14:59:04;1.70;99.90
15713;DHT22;7957;51.608;6.916;2022-12-10T15:01:35;1.70;99.90
15713;DHT22;7957;51.608;6.916;2022-12-10T15:04:04;1.60;99.90
15713;DHT22;7957;51.608;6.916;2022-12-10T15:06:49;1.70;99.90
15713;DHT22;7957;51.608;6.916;2022-12-10T15:09:18;1.70;99.90
15713;DHT22;7957;51.608;6.916;2022-12-10T15:11:52;1.70;99.90
15713;DHT22;7957;51.608;6.916;2022-12-10T15:14:20;1.80;99.90
15713;DHT22;7957;51.608;6.916;2022-12-10T15:16:48;1.80;99.90
15713;DHT22;7957;51.608;6.916;2022-12-10T15:19:19;1.70;99.90
15713;DHT22;7957;51.608;6.916;2022-12-10T15:22:15;1.70;99.90
15713;DHT22;7957;51.608;6.916;2022-12-10T15:24:45;1.70;99.90
15713;DHT22;7957;51.608;6.916;2022-12-10T15:27:15;1.80;99.90
15713;DHT22;7957;51.608;6.916;2022-12-10T15:29:46;1.70;99.90
15713;DHT22;7957;51.608;6.916;2022-12-10T15:32:20;1.80;99.90
15713;DHT22;7957;51.608;6.916;2022-12-10T15:34:50;1.70;99.90
15713;DHT22;7957;51.608;6.916;2022-12-10T15:37:23;1.70;99.90
15713;DHT22;7957;51.608;6.916;2022-12-10T15:39:59;1.70;99.90
15713;DHT22;7957;51.608;6.916;2022-12-10T15:42:31;1.70;99.90
15713;DHT22;7957;51.608;6.916;2022-12-10T15:45:16;1.70;99.90
15713;DHT22;7957;51.608;6.916;2022-12-10T15:47:44;1.70;99.90
15713;DHT22;7957;51.608;6.916;2022-12-10T15:50:11;1.70;99.90
15713;DHT22;7957;51.608;6.916;2022-12-10T15:52:40;1.70;99.90
15713;DHT22;7957;51.608;6.916;2022-12-10T15:55:08;1.70;99.90
15713;DHT22;7957;51.608;6.916;2022-12-10T15:57:37;1.70;99.90
15713;DHT22;7957;51.608;6.916;2022-12-10T16:00:17;1.70;99.90
15713;DHT22;7957;51.608;6.916;2022-12-10T16:02:47;1.70;99.90
15713;DHT22;7957;51.608;6.916;2022-12-10T16:05:16;1.70;99.90
15713;DHT22;7957;51.608;6.916;2022-12-10T16:07:55;1.70;99.90
15713;DHT22;7957;51.608;6.916;2022-12-10T16:10:28;1.70;99.90
15713;DHT22;7957;51.608;6.916;2022-12-10T16:13:02;1.70;99.90
15713;DHT22;7957;51.608;6.916;2022-12-10T16:15:33;1.70;99.90
15713;DHT22;7957;51.608;6.916;2022-12-10T16:18:01;1.70;99.90
15713;DHT22;7957;51.608;6.916;2022-12-10T16:20:29;1.70;99.90
15713;DHT22;7957;51.608;6.916;2022-12-10T16:22:58;1.70;99.90
15713;DHT22;7957;51.608;6.916;2022-12-10T16:25:28;1.70;99.90
15713;DHT22;7957;51.608;6.916;2022-12-10T16:27:58;1.70;99.90
15713;DHT22;7957;51.608;6.916;2022-12-10T16:30:29;1.70;99.90
15713;DHT22;7957;51.608;6.916;2022-12-10T16:32:58;1.60;99.90
15713;DHT22;7957;51.608;6.916;2022-12-10T16:35:25;1.60;99.90
15713;DHT22;7957;51.608;6.916;2022-12-10T16:37:52;1.60;99.90
15713;DHT22;7957;51.608;6.916;2022-12-10T16:40:22;1.60;99.90
15713;DHT22;7957;51.608;6.916;2022-12-10T16:42:49;1.60;99.90
15713;DHT22;7957;51.608;6.916;2022-12-10T16:45:18;1.60;99.90
15713;DHT22;7957;51.608;6.916;2022-12-10T16:47:46;1.60;99.90
15713;DHT22;7957;51.608;6.916;2022-12-10T16:50:14;1.70;99.90
15713;DHT22;7957;51.608;6.916;2022-12-10T16:52:42;1.60;99.90